M I D A S
Marine Information and Data Acquisition System
Tripno 1397 of the Zeeleeuw from 2007-08-06 07:02:02 to 2007-08-06 13:38:20
Back to CruiseResearch ActivitiesStationsMapUnderway DataData graphs

EquipmentUnitsComment
TimeDGPSUTC
LatitudeDGPSDM.mWGS84
LongitudeDGPSDM.mWGS84
TemperatureSBE03/SBE38deg celciusITS90
ConductivitySBE21S/mITS90
SalinitySBE21 Practical Salinity Units
ChlorophylAChelsea fluorimeterg/lCalibrated in Aceton
Missing or incorrect values are displayed as -999
Sea surface data collected by the RV Zeeleeuw from 2007-08-06 06:42:22 to 2007-08-06 13:51:07
Time Latitude Longitude Temperature Conductivity Salinity ChlorophylA
2007-08-06 06:43:27 51°13.615 2°56.03 -999 -999 -999 -999
2007-08-06 06:44:27 51°13.659 2°55.917 -999 -999 -999 -999
2007-08-06 06:45:27 51°13.693 2°55.814 -999 -999 -999 -999
2007-08-06 06:46:27 51°13.697 2°55.739 -999 -999 -999 -999
2007-08-06 06:47:27 51°13.719 2°55.749 -999 -999 -999 -999
2007-08-06 06:48:27 51°13.744 2°55.747 -999 -999 -999 -999
2007-08-06 06:49:27 51°13.802 2°55.668 -999 -999 -999 -999
2007-08-06 06:50:27 51°13.911 2°55.583 -999 -999 -999 -999
2007-08-06 06:51:27 51°14.029 2°55.497 -999 -999 -999 -999
2007-08-06 06:52:27 51°14.147 2°55.405 -999 -999 -999 -999
2007-08-06 06:53:27 51°14.25 2°55.275 -999 -999 -999 -999
2007-08-06 06:54:27 51°14.357 2°55.073 -999 -999 -999 -999
2007-08-06 06:55:27 51°14.433 2°54.821 -999 -999 -999 -999
2007-08-06 06:56:27 51°14.456 2°54.533 -999 -999 -999 -999
2007-08-06 06:57:27 51°14.415 2°54.241 -999 -999 -999 -999
2007-08-06 06:58:27 51°14.306 2°53.99 -999 -999 -999 -999
2007-08-06 06:59:27 51°14.195 2°53.739 -999 -999 -999 -999
2007-08-06 07:00:27 51°14.093 2°53.48 -999 -999 -999 -999
2007-08-06 07:01:27 51°13.993 2°53.221 -999 -999 -999 -999
2007-08-06 07:02:27 51°13.895 2°52.958 -999 -999 -999 -999
2007-08-06 07:03:27 51°13.796 2°52.693 -999 -999 -999 -999
2007-08-06 07:04:27 51°13.698 2°52.432 -999 -999 -999 -999
2007-08-06 07:05:27 51°13.601 2°52.172 -999 -999 -999 -999
2007-08-06 07:06:27 51°13.504 2°51.91 -999 -999 -999 -999
2007-08-06 07:07:27 51°13.404 2°51.649 -999 -999 -999 -999
2007-08-06 07:08:27 51°13.285 2°51.413 -999 -999 -999 -999
2007-08-06 07:09:27 51°13.174 2°51.17 -999 -999 -999 -999
2007-08-06 07:10:27 51°13.066 2°50.924 -999 -999 -999 -999
2007-08-06 07:11:27 51°12.96 2°50.675 -999 -999 -999 -999
2007-08-06 07:12:27 51°12.858 2°50.42 -999 -999 -999 -999
2007-08-06 07:13:27 51°12.758 2°50.162 -999 -999 -999 -999
2007-08-06 07:14:27 51°12.656 2°49.902 -999 -999 -999 -999
2007-08-06 07:15:27 51°12.557 2°49.641 -999 -999 -999 -999
2007-08-06 07:16:27 51°12.459 2°49.378 -999 -999 -999 -999
2007-08-06 07:17:27 51°12.364 2°49.113 -999 -999 -999 -999
2007-08-06 07:18:27 51°12.273 2°48.845 -999 -999 -999 -999
2007-08-06 07:19:27 51°12.18 2°48.574 -999 -999 -999 -999
2007-08-06 07:20:27 51°12.088 2°48.3 -999 -999 -999 -999
2007-08-06 07:21:27 51°11.996 2°48.024 -999 -999 -999 -999
2007-08-06 07:22:27 51°11.904 2°47.746 -999 -999 -999 -999
2007-08-06 07:23:27 51°11.813 2°47.467 -999 -999 -999 -999
2007-08-06 07:24:27 51°11.727 2°47.184 -999 -999 -999 -999
2007-08-06 07:25:27 51°11.647 2°46.897 -999 -999 -999 -999
2007-08-06 07:26:27 51°11.565 2°46.608 -999 -999 -999 -999
2007-08-06 07:27:27 51°11.486 2°46.318 -999 -999 -999 -999
2007-08-06 07:28:27 51°11.406 2°46.028 -999 -999 -999 -999
2007-08-06 07:29:27 51°11.327 2°45.737 -999 -999 -999 -999
2007-08-06 07:30:27 51°11.258 2°45.44 -999 -999 -999 -999
2007-08-06 07:31:27 51°11.189 2°45.143 -999 -999 -999 -999
2007-08-06 07:32:27 51°11.121 2°44.844 -999 -999 -999 -999
2007-08-06 07:33:27 51°11.053 2°44.543 -999 -999 -999 -999
2007-08-06 07:34:27 51°10.983 2°44.244 -999 -999 -999 -999
2007-08-06 07:35:27 51°10.914 2°43.945 -999 -999 -999 -999
2007-08-06 07:36:27 51°10.846 2°43.644 -999 -999 -999 -999
2007-08-06 07:37:27 51°10.779 2°43.343 -999 -999 -999 -999
2007-08-06 07:38:27 51°10.71 2°43.042 -999 -999 -999 -999
2007-08-06 07:39:27 51°10.655 2°42.736 -999 -999 -999 -999
2007-08-06 07:40:27 51°10.601 2°42.432 -999 -999 -999 -999
2007-08-06 07:41:27 51°10.547 2°42.126 -999 -999 -999 -999
2007-08-06 07:42:27 51°10.494 2°41.819 -999 -999 -999 -999
2007-08-06 07:43:27 51°10.44 2°41.513 -999 -999 -999 -999
2007-08-06 07:44:27 51°10.386 2°41.208 -999 -999 -999 -999
2007-08-06 07:45:27 51°10.333 2°40.901 -999 -999 -999 -999
2007-08-06 07:46:27 51°10.279 2°40.591 -999 -999 -999 -999
2007-08-06 07:47:27 51°10.223 2°40.279 -999 -999 -999 -999
2007-08-06 07:48:27 51°10.166 2°39.966 -999 -999 -999 -999
2007-08-06 07:49:27 51°10.11 2°39.652 -999 -999 -999 -999
2007-08-06 07:50:27 51°10.063 2°39.371 -999 -999 -999 -999
2007-08-06 07:51:27 51°10.061 2°39.228 -999 -999 -999 -999
2007-08-06 07:52:27 51°10.087 2°39.12 -999 -999 -999 -999
2007-08-06 07:53:27 51°10.126 2°38.963 -999 -999 -999 -999
2007-08-06 07:54:27 51°10.168 2°38.729 -999 -999 -999 -999
2007-08-06 07:55:27 51°10.233 2°38.495 -999 -999 -999 -999
2007-08-06 07:56:27 51°10.265 2°38.25 -999 -999 -999 -999
2007-08-06 07:57:27 51°10.278 2°38.045 -999 -999 -999 -999
2007-08-06 07:58:27 51°10.275 2°37.937 -999 -999 -999 -999
2007-08-06 07:59:27 51°10.273 2°37.862 -999 -999 -999 -999
2007-08-06 08:00:27 51°10.311 2°37.806 -999 -999 -999 -999
2007-08-06 08:01:27 51°10.367 2°37.856 -999 -999 -999 -999
2007-08-06 08:02:27 51°10.368 2°37.959 -999 -999 -999 -999
2007-08-06 08:03:27 51°10.318 2°38.003 -999 -999 -999 -999
2007-08-06 08:04:27 51°10.293 2°37.934 -999 -999 -999 -999
2007-08-06 08:05:27 51°10.348 2°37.892 -999 -999 -999 -999
2007-08-06 08:06:27 51°10.394 2°37.982 -999 -999 -999 -999
2007-08-06 08:07:27 51°10.393 2°38.064 -999 -999 -999 -999
2007-08-06 08:08:27 51°10.388 2°38.124 -999 -999 -999 -999
2007-08-06 08:09:27 51°10.382 2°38.17 -999 -999 -999 -999
2007-08-06 08:10:27 51°10.376 2°38.206 -999 -999 -999 -999
2007-08-06 08:11:27 51°10.373 2°38.234 -999 -999 -999 -999
2007-08-06 08:12:27 51°10.372 2°38.259 -999 -999 -999 -999
2007-08-06 08:13:27 51°10.374 2°38.283 -999 -999 -999 -999
2007-08-06 08:14:27 51°10.378 2°38.309 -999 -999 -999 -999
2007-08-06 08:15:27 51°10.383 2°38.336 -999 -999 -999 -999
2007-08-06 08:16:27 51°10.388 2°38.364 -999 -999 -999 -999
2007-08-06 08:17:27 51°10.394 2°38.391 -999 -999 -999 -999
2007-08-06 08:18:27 51°10.398 2°38.419 -999 -999 -999 -999
2007-08-06 08:19:27 51°10.403 2°38.448 -999 -999 -999 -999
2007-08-06 08:20:27 51°10.407 2°38.477 -999 -999 -999 -999
2007-08-06 08:21:27 51°10.413 2°38.508 -999 -999 -999 -999
2007-08-06 08:22:27 51°10.418 2°38.537 -999 -999 -999 -999
2007-08-06 08:23:27 51°10.423 2°38.565 -999 -999 -999 -999
2007-08-06 08:24:27 51°10.43 2°38.592 -999 -999 -999 -999
2007-08-06 08:25:27 51°10.437 2°38.618 -999 -999 -999 -999
2007-08-06 08:26:27 51°10.444 2°38.643 -999 -999 -999 -999
2007-08-06 08:27:27 51°10.452 2°38.667 -999 -999 -999 -999
2007-08-06 08:28:27 51°10.459 2°38.692 -999 -999 -999 -999
2007-08-06 08:29:27 51°10.466 2°38.717 -999 -999 -999 -999
2007-08-06 08:30:27 51°10.473 2°38.74 -999 -999 -999 -999
2007-08-06 08:31:27 51°10.479 2°38.761 -999 -999 -999 -999
2007-08-06 08:32:27 51°10.485 2°38.782 -999 -999 -999 -999
2007-08-06 08:33:27 51°10.486 2°38.802 -999 -999 -999 -999
2007-08-06 08:34:27 51°10.452 2°38.77 -999 -999 -999 -999
2007-08-06 08:35:27 51°10.477 2°38.688 -999 -999 -999 -999
2007-08-06 08:36:27 51°10.54 2°38.722 -999 -999 -999 -999
2007-08-06 08:37:27 51°10.532 2°38.827 -999 -999 -999 -999
2007-08-06 08:38:27 51°10.472 2°38.834 -999 -999 -999 -999
2007-08-06 08:39:27 51°10.464 2°38.739 -999 -999 -999 -999
2007-08-06 08:40:27 51°10.562 2°38.717 -999 -999 -999 -999
2007-08-06 08:41:27 51°10.613 2°38.842 -999 -999 -999 -999
2007-08-06 08:42:27 51°10.598 2°38.922 -999 -999 -999 -999
2007-08-06 08:43:27 51°10.582 2°38.967 -999 -999 -999 -999
2007-08-06 08:44:27 51°10.571 2°38.999 -999 -999 -999 -999
2007-08-06 08:45:27 51°10.563 2°39.024 -999 -999 -999 -999
2007-08-06 08:46:27 51°10.557 2°39.046 -999 -999 -999 -999
2007-08-06 08:47:27 51°10.553 2°39.064 -999 -999 -999 -999
2007-08-06 08:48:27 51°10.55 2°39.078 -999 -999 -999 -999
2007-08-06 08:49:27 51°10.548 2°39.09 -999 -999 -999 -999
2007-08-06 08:50:27 51°10.516 2°39.061 -999 -999 -999 -999
2007-08-06 08:51:27 51°10.525 2°38.964 -999 -999 -999 -999
2007-08-06 08:52:27 51°10.565 2°38.901 -999 -999 -999 -999
2007-08-06 08:53:27 51°10.606 2°38.875 -999 -999 -999 -999
2007-08-06 08:54:27 51°10.65 2°38.862 -999 -999 -999 -999
2007-08-06 08:55:27 51°10.692 2°38.889 -999 -999 -999 -999
2007-08-06 08:56:27 51°10.727 2°38.944 -999 -999 -999 -999
2007-08-06 08:57:27 51°10.758 2°39.008 -999 -999 -999 -999
2007-08-06 08:58:27 51°10.791 2°39.067 -999 -999 -999 -999
2007-08-06 08:59:27 51°10.822 2°39.12 -999 -999 -999 -999
2007-08-06 09:00:27 51°10.851 2°39.175 -999 -999 -999 -999
2007-08-06 09:01:27 51°10.879 2°39.233 -999 -999 -999 -999
2007-08-06 09:02:27 51°10.903 2°39.296 -999 -999 -999 -999
2007-08-06 09:03:27 51°10.926 2°39.361 -999 -999 -999 -999
2007-08-06 09:04:27 51°10.944 2°39.419 -999 -999 -999 -999
2007-08-06 09:05:27 51°10.961 2°39.47 -999 -999 -999 -999
2007-08-06 09:06:27 51°10.978 2°39.527 -999 -999 -999 -999
2007-08-06 09:07:27 51°10.998 2°39.587 -999 -999 -999 -999
2007-08-06 09:08:27 51°11.023 2°39.653 -999 -999 -999 -999
2007-08-06 09:09:27 51°11.049 2°39.716 -999 -999 -999 -999
2007-08-06 09:10:27 51°11.075 2°39.774 -999 -999 -999 -999
2007-08-06 09:11:27 51°11.101 2°39.828 -999 -999 -999 -999
2007-08-06 09:12:27 51°11.128 2°39.88 -999 -999 -999 -999
2007-08-06 09:13:27 51°11.158 2°39.929 -999 -999 -999 -999
2007-08-06 09:14:27 51°11.19 2°39.974 -999 -999 -999 -999
2007-08-06 09:15:27 51°11.225 2°40.012 -999 -999 -999 -999
2007-08-06 09:16:27 51°11.261 2°40.044 -999 -999 -999 -999
2007-08-06 09:17:27 51°11.297 2°40.075 -999 -999 -999 -999
2007-08-06 09:18:27 51°11.325 2°40.119 -999 -999 -999 -999
2007-08-06 09:19:27 51°11.345 2°40.184 -999 -999 -999 -999
2007-08-06 09:20:27 51°11.36 2°40.274 -999 -999 -999 -999
2007-08-06 09:21:27 51°11.344 2°40.367 -999 -999 -999 -999
2007-08-06 09:22:27 51°11.301 2°40.432 -999 -999 -999 -999
2007-08-06 09:23:27 51°11.253 2°40.459 -999 -999 -999 -999
2007-08-06 09:24:27 51°11.208 2°40.455 -999 -999 -999 -999
2007-08-06 09:25:27 51°11.177 2°40.442 -999 -999 -999 -999
2007-08-06 09:26:27 51°11.157 2°40.438 -999 -999 -999 -999
2007-08-06 09:27:27 51°11.144 2°40.442 -999 -999 -999 -999
2007-08-06 09:28:27 51°11.136 2°40.448 -999 -999 -999 -999
2007-08-06 09:29:27 51°11.093 2°40.454 -999 -999 -999 -999
2007-08-06 09:30:27 51°10.998 2°40.459 -999 -999 -999 -999
2007-08-06 09:31:27 51°10.891 2°40.433 -999 -999 -999 -999
2007-08-06 09:32:27 51°10.783 2°40.388 -999 -999 -999 -999
2007-08-06 09:33:27 51°10.682 2°40.34 -999 -999 -999 -999
2007-08-06 09:34:27 51°10.629 2°40.25 -999 -999 -999 -999
2007-08-06 09:35:27 51°10.611 2°40.165 -999 -999 -999 -999
2007-08-06 09:36:27 51°10.601 2°40.09 -999 -999 -999 -999
2007-08-06 09:37:27 51°10.593 2°40.016 -999 -999 -999 -999
2007-08-06 09:38:27 51°10.582 2°39.905 -999 -999 -999 -999
2007-08-06 09:39:27 51°10.567 2°39.777 -999 -999 -999 -999
2007-08-06 09:40:27 51°10.552 2°39.671 -999 -999 -999 -999
2007-08-06 09:41:27 51°10.539 2°39.604 -999 -999 -999 -999
2007-08-06 09:42:27 51°10.524 2°39.566 -999 -999 -999 -999
2007-08-06 09:43:27 51°10.513 2°39.545 -999 -999 -999 -999
2007-08-06 09:44:27 51°10.506 2°39.535 -999 -999 -999 -999
2007-08-06 09:45:27 51°10.503 2°39.532 -999 -999 -999 -999
2007-08-06 09:46:27 51°10.487 2°39.529 -999 -999 -999 -999
2007-08-06 09:47:27 51°10.443 2°39.457 -999 -999 -999 -999
2007-08-06 09:48:27 51°10.447 2°39.344 -999 -999 -999 -999
2007-08-06 09:49:27 51°10.467 2°39.263 -999 -999 -999 -999
2007-08-06 09:50:27 51°10.484 2°39.202 -999 -999 -999 -999
2007-08-06 09:51:27 51°10.498 2°39.15 -999 -999 -999 -999
2007-08-06 09:52:27 51°10.513 2°39.101 -999 -999 -999 -999
2007-08-06 09:53:27 51°10.548 2°39.053 -999 -999 -999 -999
2007-08-06 09:54:27 51°10.601 2°39.052 -999 -999 -999 -999
2007-08-06 09:55:27 51°10.646 2°39.102 -999 -999 -999 -999
2007-08-06 09:56:27 51°10.664 2°39.176 -999 -999 -999 -999
2007-08-06 09:57:27 51°10.652 2°39.247 -999 -999 -999 -999
2007-08-06 09:58:27 51°10.618 2°39.291 -999 -999 -999 -999
2007-08-06 09:59:27 51°10.574 2°39.312 -999 -999 -999 -999
2007-08-06 10:00:27 51°10.527 2°39.309 -999 -999 -999 -999
2007-08-06 10:01:27 51°10.477 2°39.289 -999 -999 -999 -999
2007-08-06 10:02:27 51°10.424 2°39.253 -999 -999 -999 -999
2007-08-06 10:03:27 51°10.366 2°39.19 -999 -999 -999 -999
2007-08-06 10:04:27 51°10.315 2°39.124 -999 -999 -999 -999
2007-08-06 10:05:27 51°10.277 2°39.066 -999 -999 -999 -999
2007-08-06 10:06:27 51°10.242 2°39.004 -999 -999 -999 -999
2007-08-06 10:07:27 51°10.209 2°38.935 -999 -999 -999 -999
2007-08-06 10:08:27 51°10.179 2°38.86 -999 -999 -999 -999
2007-08-06 10:09:27 51°10.15 2°38.781 -999 -999 -999 -999
2007-08-06 10:10:27 51°10.119 2°38.702 -999 -999 -999 -999
2007-08-06 10:11:27 51°10.089 2°38.621 -999 -999 -999 -999
2007-08-06 10:12:27 51°10.06 2°38.537 -999 -999 -999 -999
2007-08-06 10:13:27 51°10.031 2°38.453 -999 -999 -999 -999
2007-08-06 10:14:27 51°10 2°38.37 -999 -999 -999 -999
2007-08-06 10:15:27 51°9.969 2°38.286 -999 -999 -999 -999
2007-08-06 10:16:27 51°9.937 2°38.203 -999 -999 -999 -999
2007-08-06 10:17:27 51°9.906 2°38.12 -999 -999 -999 -999
2007-08-06 10:18:27 51°9.876 2°38.035 -999 -999 -999 -999
2007-08-06 10:19:27 51°9.847 2°37.95 -999 -999 -999 -999
2007-08-06 10:20:27 51°9.817 2°37.865 -999 -999 -999 -999
2007-08-06 10:21:27 51°9.784 2°37.781 -999 -999 -999 -999
2007-08-06 10:22:27 51°9.751 2°37.699 -999 -999 -999 -999
2007-08-06 10:23:27 51°9.715 2°37.619 -999 -999 -999 -999
2007-08-06 10:24:27 51°9.686 2°37.534 -999 -999 -999 -999
2007-08-06 10:25:27 51°9.687 2°37.445 -999 -999 -999 -999
2007-08-06 10:26:27 51°9.714 2°37.372 -999 -999 -999 -999
2007-08-06 10:27:27 51°9.747 2°37.335 -999 -999 -999 -999
2007-08-06 10:28:27 51°9.772 2°37.317 -999 -999 -999 -999
2007-08-06 10:29:27 51°9.789 2°37.296 -999 -999 -999 -999
2007-08-06 10:30:27 51°9.799 2°37.271 -999 -999 -999 -999
2007-08-06 10:31:27 51°9.804 2°37.246 -999 -999 -999 -999
2007-08-06 10:32:27 51°9.806 2°37.223 -999 -999 -999 -999
2007-08-06 10:33:27 51°9.807 2°37.205 -999 -999 -999 -999
2007-08-06 10:34:27 51°9.806 2°37.189 -999 -999 -999 -999
2007-08-06 10:35:27 51°9.806 2°37.174 -999 -999 -999 -999
2007-08-06 10:36:27 51°9.815 2°37.149 -999 -999 -999 -999
2007-08-06 10:37:27 51°9.879 2°37.068 -999 -999 -999 -999
2007-08-06 10:38:27 51°10.033 2°36.909 -999 -999 -999 -999
2007-08-06 10:39:27 51°10.216 2°36.725 -999 -999 -999 -999
2007-08-06 10:40:27 51°10.412 2°36.592 -999 -999 -999 -999
2007-08-06 10:41:27 51°10.613 2°36.56 -999 -999 -999 -999
2007-08-06 10:42:27 51°10.811 2°36.638 -999 -999 -999 -999
2007-08-06 10:43:27 51°10.991 2°36.786 -999 -999 -999 -999
2007-08-06 10:44:27 51°11.178 2°36.909 -999 -999 -999 -999
2007-08-06 10:45:27 51°11.359 2°37.051 -999 -999 -999 -999
2007-08-06 10:46:27 51°11.538 2°37.191 -999 -999 -999 -999
2007-08-06 10:47:27 51°11.719 2°37.329 -999 -999 -999 -999
2007-08-06 10:48:27 51°11.902 2°37.464 -999 -999 -999 -999
2007-08-06 10:49:27 51°12.084 2°37.597 -999 -999 -999 -999
2007-08-06 10:50:27 51°12.265 2°37.735 -999 -999 -999 -999
2007-08-06 10:51:27 51°12.447 2°37.869 -999 -999 -999 -999
2007-08-06 10:52:27 51°12.63 2°38.001 -999 -999 -999 -999
2007-08-06 10:53:27 51°12.813 2°38.132 -999 -999 -999 -999
2007-08-06 10:54:27 51°12.996 2°38.263 -999 -999 -999 -999
2007-08-06 10:55:27 51°13.181 2°38.393 -999 -999 -999 -999
2007-08-06 10:56:27 51°13.366 2°38.524 -999 -999 -999 -999
2007-08-06 10:57:27 51°13.551 2°38.658 -999 -999 -999 -999
2007-08-06 10:58:27 51°13.742 2°38.769 -999 -999 -999 -999
2007-08-06 10:59:27 51°13.942 2°38.811 -999 -999 -999 -999
2007-08-06 11:00:27 51°14.146 2°38.732 -999 -999 -999 -999
2007-08-06 11:01:27 51°14.356 2°38.687 -999 -999 -999 -999
2007-08-06 11:02:27 51°14.565 2°38.654 -999 -999 -999 -999
2007-08-06 11:03:27 51°14.772 2°38.624 -999 -999 -999 -999
2007-08-06 11:04:27 51°14.98 2°38.593 -999 -999 -999 -999
2007-08-06 11:05:27 51°15.187 2°38.561 -999 -999 -999 -999
2007-08-06 11:06:27 51°15.393 2°38.527 -999 -999 -999 -999
2007-08-06 11:07:27 51°15.6 2°38.491 -999 -999 -999 -999
2007-08-06 11:08:27 51°15.805 2°38.455 -999 -999 -999 -999
2007-08-06 11:09:27 51°16.011 2°38.418 -999 -999 -999 -999
2007-08-06 11:10:27 51°16.217 2°38.381 -999 -999 -999 -999
2007-08-06 11:11:27 51°16.422 2°38.337 -999 -999 -999 -999
2007-08-06 11:12:27 51°16.631 2°38.3 -999 -999 -999 -999
2007-08-06 11:13:27 51°16.847 2°38.252 -999 -999 -999 -999
2007-08-06 11:14:27 51°17.058 2°38.222 -999 -999 -999 -999
2007-08-06 11:15:27 51°17.265 2°38.187 -999 -999 -999 -999
2007-08-06 11:16:27 51°17.471 2°38.148 -999 -999 -999 -999
2007-08-06 11:17:27 51°17.678 2°38.108 -999 -999 -999 -999
2007-08-06 11:18:27 51°17.876 2°38.067 -999 -999 -999 -999
2007-08-06 11:19:27 51°18.015 2°38.033 -999 -999 -999 -999
2007-08-06 11:20:27 51°18.1 2°38.022 -999 -999 -999 -999
2007-08-06 11:21:27 51°18.149 2°38.034 -999 -999 -999 -999
2007-08-06 11:22:27 51°18.18 2°38.047 -999 -999 -999 -999
2007-08-06 11:23:27 51°18.203 2°38.049 -999 -999 -999 -999
2007-08-06 11:24:27 51°18.222 2°38.042 -999 -999 -999 -999
2007-08-06 11:25:27 51°18.236 2°38.028 -999 -999 -999 -999
2007-08-06 11:26:27 51°18.245 2°38.012 -999 -999 -999 -999
2007-08-06 11:27:27 51°18.25 2°37.993 -999 -999 -999 -999
2007-08-06 11:28:27 51°18.252 2°37.975 -999 -999 -999 -999
2007-08-06 11:29:27 51°18.254 2°37.959 -999 -999 -999 -999
2007-08-06 11:30:27 51°18.291 2°37.946 -999 -999 -999 -999
2007-08-06 11:31:27 51°18.308 2°37.986 -999 -999 -999 -999
2007-08-06 11:32:27 51°18.285 2°38.035 -999 -999 -999 -999
2007-08-06 11:33:27 51°18.229 2°38.057 -999 -999 -999 -999
2007-08-06 11:34:27 51°18.176 2°38.048 -999 -999 -999 -999
2007-08-06 11:35:27 51°18.13 2°38.032 -999 -999 -999 -999
2007-08-06 11:36:27 51°18.08 2°38.01 -999 -999 -999 -999
2007-08-06 11:37:27 51°18.018 2°37.98 -999 -999 -999 -999
2007-08-06 11:38:27 51°17.953 2°37.945 -999 -999 -999 -999
2007-08-06 11:39:27 51°17.892 2°37.909 -999 -999 -999 -999
2007-08-06 11:40:27 51°17.828 2°37.87 -999 -999 -999 -999
2007-08-06 11:41:27 51°17.765 2°37.827 -999 -999 -999 -999
2007-08-06 11:42:27 51°17.707 2°37.785 -999 -999 -999 -999
2007-08-06 11:43:27 51°17.65 2°37.742 -999 -999 -999 -999
2007-08-06 11:44:27 51°17.592 2°37.699 -999 -999 -999 -999
2007-08-06 11:45:27 51°17.53 2°37.652 -999 -999 -999 -999
2007-08-06 11:46:27 51°17.468 2°37.602 -999 -999 -999 -999
2007-08-06 11:47:27 51°17.405 2°37.549 -999 -999 -999 -999
2007-08-06 11:48:27 51°17.347 2°37.5 -999 -999 -999 -999
2007-08-06 11:49:27 51°17.29 2°37.444 -999 -999 -999 -999
2007-08-06 11:50:27 51°17.228 2°37.387 -999 -999 -999 -999
2007-08-06 11:51:27 51°17.165 2°37.333 -999 -999 -999 -999
2007-08-06 11:52:27 51°17.106 2°37.282 -999 -999 -999 -999
2007-08-06 11:53:27 51°17.049 2°37.234 -999 -999 -999 -999
2007-08-06 11:54:27 51°16.993 2°37.18 -999 -999 -999 -999
2007-08-06 11:55:27 51°16.938 2°37.121 -999 -999 -999 -999
2007-08-06 11:56:27 51°16.884 2°37.057 -999 -999 -999 -999
2007-08-06 11:57:27 51°16.832 2°36.989 -999 -999 -999 -999
2007-08-06 11:58:27 51°16.779 2°36.92 -999 -999 -999 -999
2007-08-06 11:59:27 51°16.725 2°36.848 -999 -999 -999 -999
2007-08-06 12:00:27 51°16.672 2°36.775 -999 -999 -999 -999
2007-08-06 12:01:27 51°16.619 2°36.702 -999 -999 -999 -999
2007-08-06 12:02:27 51°16.565 2°36.627 -999 -999 -999 -999
2007-08-06 12:03:27 51°16.513 2°36.549 -999 -999 -999 -999
2007-08-06 12:04:27 51°16.464 2°36.468 -999 -999 -999 -999
2007-08-06 12:05:27 51°16.42 2°36.381 -999 -999 -999 -999
2007-08-06 12:06:27 51°16.378 2°36.29 -999 -999 -999 -999
2007-08-06 12:07:27 51°16.337 2°36.201 -999 -999 -999 -999
2007-08-06 12:08:27 51°16.29 2°36.119 -999 -999 -999 -999
2007-08-06 12:09:27 51°16.241 2°36.039 -999 -999 -999 -999
2007-08-06 12:10:27 51°16.19 2°35.962 -999 -999 -999 -999
2007-08-06 12:11:27 51°16.137 2°35.887 -999 -999 -999 -999
2007-08-06 12:12:27 51°16.084 2°35.817 -999 -999 -999 -999
2007-08-06 12:13:27 51°16.03 2°35.748 -999 -999 -999 -999
2007-08-06 12:14:27 51°15.976 2°35.678 -999 -999 -999 -999
2007-08-06 12:15:27 51°15.922 2°35.608 -999 -999 -999 -999
2007-08-06 12:16:27 51°15.867 2°35.538 -999 -999 -999 -999
2007-08-06 12:17:27 51°15.824 2°35.447 -999 -999 -999 -999
2007-08-06 12:18:27 51°15.812 2°35.337 -999 -999 -999 -999
2007-08-06 12:19:27 51°15.84 2°35.251 -999 -999 -999 -999
2007-08-06 12:20:27 51°15.886 2°35.222 -999 -999 -999 -999
2007-08-06 12:21:27 51°15.912 2°35.221 -999 -999 -999 -999
2007-08-06 12:22:27 51°15.924 2°35.207 -999 -999 -999 -999
2007-08-06 12:23:27 51°15.929 2°35.185 -999 -999 -999 -999
2007-08-06 12:24:27 51°15.926 2°35.16 -999 -999 -999 -999
2007-08-06 12:25:27 51°15.919 2°35.135 -999 -999 -999 -999
2007-08-06 12:26:27 51°15.911 2°35.113 -999 -999 -999 -999
2007-08-06 12:27:27 51°15.9 2°35.09 -999 -999 -999 -999
2007-08-06 12:28:27 51°15.89 2°35.07 -999 -999 -999 -999
2007-08-06 12:29:27 51°15.879 2°35.05 -999 -999 -999 -999
2007-08-06 12:30:27 51°15.891 2°35.027 -999 -999 -999 -999
2007-08-06 12:31:27 51°15.903 2°35.088 -999 -999 -999 -999
2007-08-06 12:32:27 51°15.836 2°35.266 -999 -999 -999 -999
2007-08-06 12:33:27 51°15.76 2°35.55 -999 -999 -999 -999
2007-08-06 12:34:27 51°15.682 2°35.849 -999 -999 -999 -999
2007-08-06 12:35:27 51°15.605 2°36.152 -999 -999 -999 -999
2007-08-06 12:36:27 51°15.532 2°36.458 -999 -999 -999 -999
2007-08-06 12:37:27 51°15.462 2°36.763 -999 -999 -999 -999
2007-08-06 12:38:27 51°15.379 2°37.053 -999 -999 -999 -999
2007-08-06 12:39:27 51°15.292 2°37.342 -999 -999 -999 -999
2007-08-06 12:40:27 51°15.203 2°37.621 -999 -999 -999 -999
2007-08-06 12:41:27 51°15.116 2°37.901 -999 -999 -999 -999
2007-08-06 12:42:27 51°15.024 2°38.186 -999 -999 -999 -999
2007-08-06 12:43:27 51°14.93 2°38.472 -999 -999 -999 -999
2007-08-06 12:44:27 51°14.836 2°38.762 -999 -999 -999 -999
2007-08-06 12:45:27 51°14.746 2°39.055 -999 -999 -999 -999
2007-08-06 12:46:27 51°14.656 2°39.353 -999 -999 -999 -999
2007-08-06 12:47:27 51°14.567 2°39.651 -999 -999 -999 -999
2007-08-06 12:48:27 51°14.478 2°39.949 -999 -999 -999 -999
2007-08-06 12:49:27 51°14.42 2°40.258 -999 -999 -999 -999
2007-08-06 12:50:27 51°14.382 2°40.576 -999 -999 -999 -999
2007-08-06 12:51:27 51°14.36 2°40.893 -999 -999 -999 -999
2007-08-06 12:52:27 51°14.372 2°41.208 -999 -999 -999 -999
2007-08-06 12:53:27 51°14.384 2°41.522 -999 -999 -999 -999
2007-08-06 12:54:27 51°14.394 2°41.834 -999 -999 -999 -999
2007-08-06 12:55:27 51°14.402 2°42.145 -999 -999 -999 -999
2007-08-06 12:56:27 51°14.411 2°42.458 -999 -999 -999 -999
2007-08-06 12:57:27 51°14.415 2°42.765 -999 -999 -999 -999
2007-08-06 12:58:27 51°14.424 2°43.071 -999 -999 -999 -999
2007-08-06 12:59:27 51°14.431 2°43.379 -999 -999 -999 -999
2007-08-06 13:00:27 51°14.437 2°43.687 -999 -999 -999 -999
2007-08-06 13:01:27 51°14.46 2°43.991 -999 -999 -999 -999
2007-08-06 13:02:27 51°14.487 2°44.3 -999 -999 -999 -999
2007-08-06 13:03:27 51°14.509 2°44.606 -999 -999 -999 -999
2007-08-06 13:04:27 51°14.532 2°44.915 -999 -999 -999 -999
2007-08-06 13:05:27 51°14.552 2°45.225 -999 -999 -999 -999
2007-08-06 13:06:27 51°14.584 2°45.532 -999 -999 -999 -999
2007-08-06 13:07:27 51°14.603 2°45.844 -999 -999 -999 -999
2007-08-06 13:08:27 51°14.634 2°46.16 -999 -999 -999 -999
2007-08-06 13:09:27 51°14.659 2°46.478 -999 -999 -999 -999
2007-08-06 13:10:27 51°14.684 2°46.794 -999 -999 -999 -999
2007-08-06 13:11:27 51°14.712 2°47.106 -999 -999 -999 -999
2007-08-06 13:12:27 51°14.739 2°47.417 -999 -999 -999 -999
2007-08-06 13:13:27 51°14.764 2°47.728 -999 -999 -999 -999
2007-08-06 13:14:27 51°14.789 2°48.039 -999 -999 -999 -999
2007-08-06 13:15:27 51°14.812 2°48.351 -999 -999 -999 -999
2007-08-06 13:16:27 51°14.835 2°48.663 -999 -999 -999 -999
2007-08-06 13:17:27 51°14.857 2°48.975 -999 -999 -999 -999
2007-08-06 13:18:27 51°14.878 2°49.286 -999 -999 -999 -999
2007-08-06 13:19:27 51°14.898 2°49.598 -999 -999 -999 -999
2007-08-06 13:20:27 51°14.918 2°49.908 -999 -999 -999 -999
2007-08-06 13:21:27 51°14.939 2°50.22 -999 -999 -999 -999
2007-08-06 13:22:27 51°14.956 2°50.532 -999 -999 -999 -999
2007-08-06 13:23:27 51°14.966 2°50.847 -999 -999 -999 -999
2007-08-06 13:24:27 51°14.979 2°51.161 -999 -999 -999 -999
2007-08-06 13:25:27 51°14.977 2°51.477 -999 -999 -999 -999
2007-08-06 13:26:27 51°14.955 2°51.794 -999 -999 -999 -999
2007-08-06 13:27:27 51°14.931 2°52.109 -999 -999 -999 -999
2007-08-06 13:28:27 51°14.9 2°52.426 -999 -999 -999 -999
2007-08-06 13:29:27 51°14.872 2°52.744 -999 -999 -999 -999
2007-08-06 13:30:27 51°14.843 2°53.063 -999 -999 -999 -999
2007-08-06 13:31:27 51°14.804 2°53.387 -999 -999 -999 -999
2007-08-06 13:32:27 51°14.751 2°53.704 -999 -999 -999 -999
2007-08-06 13:33:27 51°14.685 2°54.017 -999 -999 -999 -999
2007-08-06 13:34:27 51°14.613 2°54.328 -999 -999 -999 -999
2007-08-06 13:35:27 51°14.533 2°54.631 -999 -999 -999 -999
2007-08-06 13:36:27 51°14.432 2°54.916 -999 -999 -999 -999
2007-08-06 13:37:27 51°14.312 2°55.185 -999 -999 -999 -999
2007-08-06 13:38:27 51°14.204 2°55.347 -999 -999 -999 -999
2007-08-06 13:39:27 51°14.118 2°55.421 -999 -999 -999 -999
2007-08-06 13:40:27 51°14.006 2°55.502 -999 -999 -999 -999
2007-08-06 13:41:27 51°13.884 2°55.592 -999 -999 -999 -999
2007-08-06 13:42:27 51°13.792 2°55.668 -999 -999 -999 -999
2007-08-06 13:43:27 51°13.733 2°55.758 -999 -999 -999 -999
2007-08-06 13:44:27 51°13.686 2°55.853 -999 -999 -999 -999
2007-08-06 13:45:27 51°13.65 2°55.935 -999 -999 -999 -999
2007-08-06 13:46:27 51°13.623 2°56.007 -999 -999 -999 -999
2007-08-06 13:47:27 51°13.607 2°56.068 -999 -999 -999 -999
2007-08-06 13:48:27 51°13.603 2°56.093 -999 -999 -999 -999
2007-08-06 13:49:27 51°13.601 2°56.099 -999 -999 -999 -999
2007-08-06 13:50:27 51°13.601 2°56.1 -999 -999 -999 -999